Time;durP1;ratioP1;P1;durP2;ratioP2;P2;SDS_P1;SDS_P2;PMS_P1;PMS_P2;Temp;Humidity;BMP_temperature;BMP_pressure;BME280_temperature;BME280_humidity;BME280_pressure;Samples;Min_cycle;Max_cycle;Signal;HPM_P1;HPM_P2
2022/04/06 00:01:40;;;;;;;7.57;6.63;;;9.80;99.90;;;;;;5074254;28;20233;-82
2022/04/06 00:04:07;;;;;;;7.97;7.03;;;9.80;99.90;;;;;;5074327;28;20686;-80
2022/04/06 00:06:34;;;;;;;6.68;6.07;;;9.70;99.90;;;;;;5074427;28;20216;-82
2022/04/06 00:09:02;;;;;;;7.72;7.15;;;9.80;99.90;;;;;;5073927;28;20212;-83
2022/04/06 00:11:29;;;;;;;7.22;6.30;;;9.90;99.90;;;;;;5074101;28;20217;-83
2022/04/06 00:13:56;;;;;;;6.93;6.15;;;9.80;99.90;;;;;;5074827;28;20216;-82
2022/04/06 00:16:23;;;;;;;6.78;6.25;;;9.90;99.90;;;;;;5074248;28;20694;-82
2022/04/06 00:18:50;;;;;;;6.88;6.20;;;10.00;99.90;;;;;;5074417;28;20205;-83
2022/04/06 00:21:16;;;;;;;7.45;6.95;;;10.10;99.90;;;;;;5074006;28;20231;-82
2022/04/06 00:23:43;;;;;;;6.63;6.13;;;10.00;99.90;;;;;;5074207;28;20217;-83
2022/04/06 00:26:11;;;;;;;6.18;5.65;;;10.00;99.90;;;;;;5073876;28;20209;-82
2022/04/06 00:28:39;;;;;;;7.88;7.07;;;9.80;99.90;;;;;;5074841;28;20210;-82
2022/04/06 00:31:05;;;;;;;6.20;5.70;;;9.90;99.90;;;;;;5073804;28;20206;-81
2022/04/06 00:33:32;;;;;;;6.93;6.32;;;9.80;99.90;;;;;;5073580;28;20245;-82
2022/04/06 00:35:59;;;;;;;6.43;5.82;;;9.80;99.90;;;;;;5074446;28;20220;-82
2022/04/06 00:38:25;;;;;;;7.57;6.65;;;9.70;99.90;;;;;;5074953;28;20205;-82
2022/04/06 00:40:52;;;;;;;6.47;5.93;;;9.70;99.90;;;;;;5074456;28;20201;-81
2022/04/06 00:43:20;;;;;;;7.57;6.88;;;9.70;99.90;;;;;;5077452;28;20729;-80
2022/04/06 00:45:47;;;;;;;6.88;5.47;;;9.80;99.90;;;;;;5080333;28;20216;-80
2022/04/06 00:48:14;;;;;;;7.40;6.80;;;9.90;99.90;;;;;;5078693;28;20205;-81
2022/04/06 00:50:42;;;;;;;6.15;5.65;;;9.80;99.90;;;;;;5073723;28;20210;-81
2022/04/06 00:53:09;;;;;;;7.35;6.70;;;9.80;99.90;;;;;;5073782;28;20221;-81
2022/04/06 00:55:38;;;;;;;6.63;6.13;;;9.90;99.90;;;;;;5073715;28;20217;-82
2022/04/06 00:58:05;;;;;;;7.60;6.03;;;9.90;99.90;;;;;;5073770;28;20671;-81
2022/04/06 01:00:34;;;;;;;7.13;6.53;;;9.90;99.90;;;;;;5073140;28;20208;-83
2022/04/06 01:03:01;;;;;;;6.75;6.20;;;9.80;99.90;;;;;;5073650;28;20238;-82
2022/04/06 01:05:28;;;;;;;6.78;6.28;;;9.70;99.90;;;;;;5073521;28;20676;-81
2022/04/06 01:07:59;;;;;;;6.40;5.70;;;9.70;99.90;;;;;;5073870;28;20220;-82
2022/04/06 01:10:26;;;;;;;7.53;6.90;;;9.70;99.90;;;;;;5073386;28;20186;-81
2022/04/06 01:12:52;;;;;;;6.88;6.28;;;9.80;99.90;;;;;;5073426;28;20229;-82
2022/04/06 01:15:19;;;;;;;7.00;6.10;;;9.80;99.90;;;;;;5073545;28;20665;-81
2022/04/06 01:17:47;;;;;;;7.55;6.95;;;9.80;99.90;;;;;;5073554;28;20209;-82
2022/04/06 01:20:15;;;;;;;5.75;5.25;;;9.70;99.90;;;;;;5073316;28;20209;-81
2022/04/06 01:22:43;;;;;;;6.95;6.28;;;9.80;99.90;;;;;;5077613;28;20228;-81
2022/04/06 01:25:10;;;;;;;6.00;5.50;;;9.80;99.90;;;;;;5078006;28;20214;-81
2022/04/06 01:27:37;;;;;;;6.45;5.85;;;9.80;99.90;;;;;;5077463;28;20217;-82
2022/04/06 01:30:05;;;;;;;6.28;5.78;;;9.90;99.90;;;;;;5077509;28;20209;-82
2022/04/06 01:32:32;;;;;;;7.63;6.78;;;9.90;99.90;;;;;;5077296;28;20229;-82
2022/04/06 01:35:00;;;;;;;6.80;6.30;;;9.80;99.90;;;;;;5077300;28;20206;-81
2022/04/06 01:37:28;;;;;;;7.18;6.47;;;9.80;99.90;;;;;;5077271;28;20205;-81
2022/04/06 01:39:56;;;;;;;6.43;5.80;;;9.70;99.90;;;;;;5077314;28;20232;-83
2022/04/06 01:42:23;;;;;;;6.55;5.70;;;9.80;99.90;;;;;;5076842;28;20233;-82
2022/04/06 01:44:51;;;;;;;7.65;6.47;;;9.80;99.90;;;;;;5077001;28;20209;-82
2022/04/06 01:47:20;;;;;;;6.90;6.35;;;9.80;99.90;;;;;;5076795;28;20209;-82
2022/04/06 01:52:34;;;;;;;6.95;6.32;;;9.80;99.90;;;;;;5076725;28;20286;-82
2022/04/06 01:55:04;;;;;;;6.53;5.85;;;9.90;99.90;;;;;;5077437;28;20607;-82
2022/04/06 01:57:32;;;;;;;6.53;6.03;;;9.70;99.90;;;;;;5076895;28;20205;-80
2022/04/06 01:59:59;;;;;;;6.72;6.13;;;9.70;99.90;;;;;;5076717;28;20208;-81
2022/04/06 02:02:31;;;;;;;5.28;4.88;;;9.80;99.90;;;;;;5076367;28;20236;-83
2022/04/06 02:05:00;;;;;;;6.78;6.13;;;9.90;99.90;;;;;;5076949;28;20189;-82
2022/04/06 02:07:26;;;;;;;5.63;5.13;;;9.80;99.90;;;;;;5076264;28;20229;-82
2022/04/06 02:09:54;;;;;;;6.70;6.10;;;9.70;99.90;;;;;;5076567;28;20205;-81
2022/04/06 02:12:22;;;;;;;8.40;5.95;;;9.70;99.90;;;;;;5076266;28;20244;-80
2022/04/06 02:14:49;;;;;;;6.57;5.97;;;9.70;99.90;;;;;;5076576;28;20254;-80
2022/04/06 02:17:16;;;;;;;6.63;5.95;;;9.70;99.90;;;;;;5076822;28;20798;-82
2022/04/06 02:19:43;;;;;;;6.57;5.97;;;9.70;99.90;;;;;;5076371;28;20209;-81
2022/04/06 02:22:10;;;;;;;6.55;5.90;;;9.70;99.90;;;;;;5076042;28;20248;-82
2022/04/06 02:24:38;;;;;;;6.22;5.70;;;9.70;99.90;;;;;;5076563;28;20216;-82
2022/04/06 02:27:07;;;;;;;6.90;6.25;;;9.70;99.90;;;;;;5076519;28;20211;-82
2022/04/06 02:29:36;;;;;;;5.57;5.15;;;9.70;99.90;;;;;;5076536;28;20206;-82
2022/04/06 02:32:03;;;;;;;7.28;6.78;;;9.70;99.90;;;;;;5075481;28;20225;-82
2022/04/06 02:34:30;;;;;;;7.32;6.50;;;9.70;99.90;;;;;;5076622;28;20217;-81
2022/04/06 02:36:57;;;;;;;6.65;6.03;;;9.70;99.90;;;;;;5076585;28;20208;-83
2022/04/06 02:39:23;;;;;;;6.97;6.38;;;9.60;99.90;;;;;;5076359;28;20212;-82
2022/04/06 02:41:51;;;;;;;7.63;6.72;;;9.60;99.90;;;;;;5075802;28;20233;-81
2022/04/06 02:44:18;;;;;;;8.88;7.07;;;9.70;99.90;;;;;;5076604;28;20206;-82
2022/04/06 02:46:47;;;;;;;7.35;6.65;;;9.60;99.90;;;;;;5076293;28;20212;-82
2022/04/06 02:49:14;;;;;;;7.53;6.80;;;9.70;99.90;;;;;;5076401;28;20201;-82
2022/04/06 02:51:41;;;;;;;7.05;6.35;;;9.60;99.90;;;;;;5075951;28;20228;-82
2022/04/06 02:54:08;;;;;;;10.35;6.88;;;9.60;99.90;;;;;;5076093;28;20213;-82
2022/04/06 02:56:35;;;;;;;8.35;6.85;;;9.60;99.90;;;;;;5076658;28;20580;-83
2022/04/06 02:59:02;;;;;;;9.07;7.45;;;9.60;99.90;;;;;;5076485;28;20209;-82
2022/04/06 03:01:29;;;;;;;7.80;7.10;;;9.60;99.90;;;;;;5075371;28;20300;-82
2022/04/06 03:03:57;;;;;;;7.57;6.85;;;9.70;99.90;;;;;;5075749;28;20233;-82
2022/04/06 03:06:24;;;;;;;7.47;6.88;;;9.70;99.90;;;;;;5075796;28;20209;-82
2022/04/06 03:08:51;;;;;;;7.53;6.82;;;9.70;99.90;;;;;;5075404;28;20208;-82
2022/04/06 03:11:18;;;;;;;8.50;7.50;;;9.70;99.90;;;;;;5075359;28;20586;-82
2022/04/06 03:13:44;;;;;;;6.97;6.10;;;9.70;99.90;;;;;;5075736;28;20202;-82
2022/04/06 03:16:11;;;;;;;8.50;6.82;;;9.80;99.90;;;;;;5075808;28;20214;-83
2022/04/06 03:18:38;;;;;;;7.78;6.90;;;9.90;99.90;;;;;;5075119;28;20218;-82
2022/04/06 03:21:06;;;;;;;7.50;6.70;;;9.90;99.90;;;;;;5075079;28;20201;-82
2022/04/06 03:23:32;;;;;;;6.90;6.30;;;9.90;99.90;;;;;;5074799;28;20238;-82
2022/04/06 03:25:59;;;;;;;8.27;7.45;;;9.90;99.90;;;;;;5075689;28;20213;-81
2022/04/06 03:28:26;;;;;;;7.90;6.07;;;9.80;99.90;;;;;;5075744;28;20228;-82
2022/04/06 03:30:52;;;;;;;8.13;7.43;;;9.70;99.90;;;;;;5075313;28;20211;-82
2022/04/06 03:35:47;;;;;;;8.32;7.63;;;9.80;99.90;;;;;;5073699;28;20255;-82
2022/04/06 03:38:15;;;;;;;6.97;6.45;;;9.70;99.90;;;;;;5075017;28;20556;-82
2022/04/06 03:40:42;;;;;;;10.40;7.82;;;9.80;99.90;;;;;;5074812;28;20213;-82
2022/04/06 03:43:09;;;;;;;9.13;8.23;;;9.80;99.90;;;;;;5074129;28;20244;-82
2022/04/06 03:45:35;;;;;;;8.30;7.47;;;9.90;99.90;;;;;;5075043;28;20211;-82
2022/04/06 03:48:02;;;;;;;7.13;6.50;;;9.90;99.90;;;;;;5075137;28;20214;-83
2022/04/06 03:50:29;;;;;;;8.30;7.60;;;9.80;99.90;;;;;;5074345;28;20213;-82
2022/04/06 03:52:55;;;;;;;7.97;6.70;;;9.80;99.90;;;;;;5074579;28;20224;-81
2022/04/06 03:55:24;;;;;;;8.68;7.97;;;9.90;99.90;;;;;;5074661;28;20636;-83
2022/04/06 03:57:50;;;;;;;9.32;8.52;;;10.00;99.90;;;;;;5074656;28;20210;-83
2022/04/06 04:00:18;;;;;;;7.88;7.00;;;9.70;99.90;;;;;;5074272;28;20212;-82
2022/04/06 04:02:45;;;;;;;8.55;7.60;;;9.60;99.90;;;;;;5074576;28;20238;-83
2022/04/06 04:05:12;;;;;;;8.50;7.70;;;9.60;99.90;;;;;;5074605;28;20205;-81
2022/04/06 04:07:39;;;;;;;8.02;7.22;;;9.70;99.90;;;;;;5074996;28;20447;-82
2022/04/06 04:10:08;;;;;;;9.00;8.30;;;9.70;99.90;;;;;;5074242;28;20205;-82
2022/04/06 04:12:36;;;;;;;8.13;7.43;;;9.70;99.90;;;;;;5074369;28;20226;-81
2022/04/06 04:15:04;;;;;;;8.25;7.50;;;9.70;99.90;;;;;;5074120;28;20201;-83
2022/04/06 04:17:30;;;;;;;8.82;7.97;;;9.80;99.90;;;;;;5074142;28;20702;-82
2022/04/06 04:19:57;;;;;;;9.50;8.40;;;9.80;99.90;;;;;;5074515;28;20213;-82
2022/04/06 04:22:24;;;;;;;9.35;8.52;;;9.80;99.90;;;;;;5074190;28;20237;-82
2022/04/06 04:24:51;;;;;;;8.73;8.02;;;9.80;99.90;;;;;;5074561;28;20724;-82
2022/04/06 04:27:18;;;;;;;10.35;9.18;;;9.60;99.90;;;;;;5073809;28;20206;-82
2022/04/06 04:29:46;;;;;;;8.15;7.45;;;9.70;99.90;;;;;;5073981;28;20255;-83
2022/04/06 04:32:14;;;;;;;9.05;8.25;;;9.70;99.90;;;;;;5073694;28;20230;-82
2022/04/06 04:34:41;;;;;;;8.85;8.10;;;9.80;99.90;;;;;;5073819;28;20686;-82
2022/04/06 04:37:08;;;;;;;10.70;9.70;;;9.90;99.90;;;;;;5074085;28;20210;-81
2022/04/06 04:39:35;;;;;;;9.65;8.68;;;9.70;99.90;;;;;;5073925;28;20214;-81
2022/04/06 04:42:02;;;;;;;9.40;8.50;;;9.70;99.90;;;;;;5073427;28;20221;-82
2022/04/06 04:44:29;;;;;;;9.02;8.15;;;9.70;99.90;;;;;;5073811;28;20213;-82
2022/04/06 04:46:57;;;;;;;9.48;8.55;;;9.70;99.90;;;;;;5073703;28;20218;-82
2022/04/06 04:49:24;;;;;;;9.82;8.15;;;9.70;99.90;;;;;;5073975;28;20208;-83
2022/04/06 04:51:51;;;;;;;8.30;7.60;;;9.70;99.90;;;;;;5073721;28;20255;-82
2022/04/06 04:54:23;;;;;;;10.52;9.65;;;9.70;99.90;;;;;;5073786;28;20791;-81
2022/04/06 04:56:51;;;;;;;9.02;8.18;;;9.70;99.90;;;;;;5073866;28;20206;-82
2022/04/06 04:59:17;;;;;;;9.02;8.15;;;9.60;99.90;;;;;;5073726;28;20202;-81
2022/04/06 05:01:44;;;;;;;9.35;8.50;;;9.50;99.90;;;;;;5073545;28;20212;-82
2022/04/06 05:04:12;;;;;;;10.13;8.10;;;9.50;99.90;;;;;;5073806;28;20221;-81
2022/04/06 05:06:39;;;;;;;9.95;9.15;;;9.60;99.90;;;;;;5073788;28;20216;-82
2022/04/06 05:09:06;;;;;;;8.85;8.07;;;9.60;99.90;;;;;;5073684;28;20205;-82
2022/04/06 05:11:33;;;;;;;9.45;8.55;;;9.50;99.90;;;;;;5073493;28;20217;-82
2022/04/06 05:13:59;;;;;;;9.00;8.30;;;9.60;99.90;;;;;;5073591;28;20793;-81
2022/04/06 05:16:26;;;;;;;9.52;8.55;;;9.50;99.90;;;;;;5073599;28;20598;-83
2022/04/06 05:18:54;;;;;;;9.95;8.77;;;9.60;99.90;;;;;;5073373;28;20219;-82
2022/04/06 05:21:23;;;;;;;8.32;7.65;;;9.60;99.90;;;;;;5073475;28;20209;-81
2022/04/06 05:23:49;;;;;;;9.02;8.23;;;9.60;99.90;;;;;;5073413;28;20248;-82
2022/04/06 05:26:17;;;;;;;8.95;8.15;;;9.60;99.90;;;;;;5073589;28;20212;-80
2022/04/06 05:28:43;;;;;;;8.30;7.47;;;9.80;99.90;;;;;;5073741;28;20565;-82
2022/04/06 05:31:10;;;;;;;12.73;8.88;;;9.70;99.90;;;;;;5073623;28;20206;-82
2022/04/06 05:33:37;;;;;;;9.18;8.38;;;9.70;99.90;;;;;;5073733;28;20584;-82
2022/04/06 05:36:04;;;;;;;9.43;8.45;;;9.80;99.90;;;;;;5073901;28;20194;-82
2022/04/06 05:38:34;;;;;;;8.65;7.85;;;9.90;99.90;;;;;;5073684;28;20199;-82
2022/04/06 05:41:01;;;;;;;7.97;7.00;;;9.80;99.90;;;;;;5073267;28;20250;-83
2022/04/06 05:43:28;;;;;;;7.88;7.18;;;9.80;99.90;;;;;;5073441;28;20232;-82
2022/04/06 05:45:54;;;;;;;9.43;8.52;;;9.90;99.90;;;;;;5073355;28;20206;-81
2022/04/06 05:48:21;;;;;;;7.95;7.35;;;10.00;99.90;;;;;;5074420;28;20205;-84
2022/04/06 05:50:48;;;;;;;7.85;7.25;;;10.10;99.90;;;;;;5074035;28;20213;-81
2022/04/06 05:53:15;;;;;;;7.95;7.10;;;10.00;99.90;;;;;;5073557;28;20230;-83
2022/04/06 05:55:45;;;;;;;7.82;7.15;;;10.00;99.90;;;;;;5073996;28;20207;-83
2022/04/06 05:58:12;;;;;;;8.60;7.80;;;10.00;99.90;;;;;;5074166;28;20190;-83
2022/04/06 06:00:39;;;;;;;8.10;7.40;;;10.00;99.90;;;;;;5073757;28;20579;-82
2022/04/06 06:03:06;;;;;;;8.50;7.80;;;10.10;99.90;;;;;;5073547;28;20713;-83
2022/04/06 06:05:32;;;;;;;11.60;8.30;;;10.30;99.90;;;;;;5073984;28;20206;-84
2022/04/06 06:07:59;;;;;;;8.30;7.57;;;10.30;99.90;;;;;;5059885;28;20453;-84
2022/04/06 06:10:26;;;;;;;7.88;7.18;;;10.30;99.90;;;;;;5056797;28;20215;-84
2022/04/06 06:12:54;;;;;;;11.20;10.05;;;10.20;99.90;;;;;;5057515;28;20233;-83
2022/04/06 06:15:21;;;;;;;8.32;7.28;;;10.10;99.90;;;;;;5057400;28;20238;-84
2022/04/06 06:17:48;;;;;;;7.18;6.47;;;10.30;99.90;;;;;;5062071;28;20260;-85
2022/04/06 06:20:14;;;;;;;8.52;7.80;;;10.40;99.90;;;;;;5064911;28;20201;-84
2022/04/06 06:22:41;;;;;;;7.65;6.95;;;10.40;99.90;;;;;;5064138;28;20228;-84
2022/04/06 06:25:09;;;;;;;8.00;7.20;;;10.50;99.90;;;;;;5066454;28;20582;-85
2022/04/06 06:27:39;;;;;;;7.40;6.80;;;10.60;99.90;;;;;;5064949;28;20439;-83
2022/04/06 06:30:08;;;;;;;9.00;8.20;;;10.60;99.90;;;;;;5064702;28;20443;-86
2022/04/06 06:32:35;;;;;;;7.90;6.90;;;10.70;99.90;;;;;;5071039;28;20551;-84
2022/04/06 06:35:02;;;;;;;7.20;6.00;;;10.80;99.90;;;;;;5074221;28;20460;-83
2022/04/06 06:37:28;;;;;;;10.73;9.50;;;10.90;99.90;;;;;;5063058;28;20469;-83
2022/04/06 06:39:55;;;;;;;7.53;6.93;;;10.90;99.90;;;;;;5056616;28;20465;-84
2022/04/06 06:42:22;;;;;;;7.53;6.93;;;10.90;99.90;;;;;;5055766;28;20478;-83
2022/04/06 06:44:49;;;;;;;6.55;5.88;;;10.90;99.90;;;;;;5056422;28;20226;-83
2022/04/06 06:47:17;;;;;;;6.87;6.23;;;10.80;99.90;;;;;;5057239;28;20208;-83
2022/04/06 06:49:46;;;;;;;7.20;6.60;;;10.80;99.90;;;;;;5056658;28;20876;-85
2022/04/06 06:52:13;;;;;;;7.00;6.50;;;10.80;99.90;;;;;;5055809;28;20565;-85
2022/04/06 06:54:40;;;;;;;6.00;5.47;;;11.00;99.90;;;;;;5056948;28;20451;-86
2022/04/06 06:57:07;;;;;;;5.00;4.60;;;10.80;99.90;;;;;;5056969;28;20458;-86
2022/04/06 06:59:34;;;;;;;5.93;5.50;;;10.70;99.90;;;;;;5061505;28;20462;-86
2022/04/06 07:02:00;;;;;;;6.63;6.10;;;10.70;99.90;;;;;;5080474;28;20476;-86
2022/04/06 07:04:28;;;;;;;5.10;4.70;;;10.80;99.90;;;;;;5084844;28;20852;-86
2022/04/06 07:06:58;;;;;;;5.43;5.00;;;11.00;99.90;;;;;;5084879;28;20211;-86
2022/04/06 07:09:25;;;;;;;6.33;5.90;;;11.10;99.90;;;;;;5079933;28;20203;-84
2022/04/06 07:11:52;;;;;;;4.90;4.53;;;11.00;99.90;;;;;;5077564;28;20469;-84
2022/04/06 07:14:21;;;;;;;5.17;4.73;;;11.00;99.90;;;;;;5080846;28;20506;-86
2022/04/06 07:16:54;;;;;;;4.03;3.80;;;11.10;99.90;;;;;;5082601;28;20464;-86
2022/04/06 07:19:21;;;;;;;4.50;4.10;;;11.10;99.90;;;;;;5077010;28;20457;-87
2022/04/06 07:21:50;;;;;;;4.43;4.03;;;11.20;99.90;;;;;;5081661;28;20461;-85
2022/04/06 07:24:43;;;;;;;3.93;3.63;;;11.20;99.90;;;;;;5079501;28;20493;-88
2022/04/06 07:27:18;;;;;;;4.67;4.03;;;11.30;99.90;;;;;;5080689;28;20448;-82
2022/04/06 07:29:45;;;;;;;4.10;3.80;;;11.20;99.90;;;;;;5079071;28;20817;-82
2022/04/06 07:32:12;;;;;;;3.93;3.63;;;11.30;99.90;;;;;;5077262;28;20226;-86
2022/04/06 07:34:39;;;;;;;4.73;4.33;;;11.40;99.90;;;;;;5077043;28;20493;-83
2022/04/06 07:37:07;;;;;;;5.13;4.57;;;11.30;99.90;;;;;;5079622;28;20465;-82
2022/04/06 07:39:33;;;;;;;3.77;3.47;;;11.30;99.90;;;;;;5076433;28;20464;-82
2022/04/06 07:42:00;;;;;;;3.30;3.00;;;11.30;99.90;;;;;;5076871;28;20966;-82
2022/04/06 07:44:27;;;;;;;4.00;3.67;;;11.40;99.90;;;;;;5076292;28;20496;-82
2022/04/06 07:46:53;;;;;;;5.00;4.10;;;11.40;99.90;;;;;;5076085;28;20463;-83
2022/04/06 07:49:20;;;;;;;4.37;4.03;;;11.50;99.90;;;;;;5077070;28;20434;-81
2022/04/06 07:51:47;;;;;;;3.93;3.60;;;11.40;99.90;;;;;;5076007;28;20453;-82
2022/04/06 07:54:15;;;;;;;2.80;2.60;;;11.40;99.90;;;;;;5076825;28;20449;-83
2022/04/06 07:56:42;;;;;;;2.80;2.60;;;11.50;99.90;;;;;;5076312;28;20450;-83
2022/04/06 07:59:09;;;;;;;2.67;2.43;;;11.60;99.90;;;;;;5075544;28;20450;-82
2022/04/06 08:01:36;;;;;;;2.40;2.20;;;11.60;99.90;;;;;;5074717;28;20943;-84
2022/04/06 08:04:03;;;;;;;2.70;2.50;;;11.80;99.90;;;;;;5075545;28;20488;-83
2022/04/06 08:06:30;;;;;;;2.53;2.33;;;11.90;99.90;;;;;;5075173;28;20461;-84
2022/04/06 08:08:56;;;;;;;2.80;2.57;;;12.10;99.90;;;;;;5075034;28;20450;-83
2022/04/06 08:11:24;;;;;;;2.47;2.27;;;12.30;99.90;;;;;;5075335;28;20450;-83
2022/04/06 08:13:51;;;;;;;2.90;2.70;;;12.30;99.90;;;;;;5075186;28;20477;-85
2022/04/06 08:16:18;;;;;;;2.80;2.60;;;12.30;99.90;;;;;;5075757;28;20457;-83
2022/04/06 08:18:45;;;;;;;3.30;2.87;;;12.30;99.90;;;;;;5075706;28;20462;-83
2022/04/06 08:21:12;;;;;;;3.37;2.90;;;12.30;99.90;;;;;;5076213;28;20461;-83
2022/04/06 08:23:38;;;;;;;2.80;2.47;;;12.30;99.90;;;;;;5076541;28;20505;-83
2022/04/06 08:26:05;;;;;;;2.00;1.90;;;12.40;99.90;;;;;;5075782;28;20450;-84
2022/04/06 08:28:33;;;;;;;2.07;1.97;;;12.50;99.90;;;;;;5075524;28;20443;-83
2022/04/06 08:31:00;;;;;;;1.80;1.70;;;12.50;99.90;;;;;;5075055;28;20458;-82
2022/04/06 08:33:26;;;;;;;2.30;1.77;;;12.40;99.90;;;;;;5074928;28;20887;-83
2022/04/06 08:35:53;;;;;;;2.50;2.30;;;12.50;99.90;;;;;;5075748;28;20454;-84
2022/04/06 08:38:20;;;;;;;1.90;1.80;;;12.40;99.90;;;;;;5075661;28;20450;-83
2022/04/06 08:40:47;;;;;;;2.23;2.13;;;12.40;99.90;;;;;;5074518;28;20457;-84
2022/04/06 08:43:17;;;;;;;2.70;1.53;;;12.60;99.90;;;;;;5074839;28;20505;-83
2022/04/06 08:45:45;;;;;;;1.07;1.07;;;12.80;99.90;;;;;;5075524;28;20443;-83
2022/04/06 08:48:13;;;;;;;1.77;1.67;;;12.90;99.90;;;;;;5075336;28;20869;-83
2022/04/06 08:50:40;;;;;;;2.07;1.90;;;12.70;99.90;;;;;;5074576;28;20545;-83
2022/04/06 08:53:08;;;;;;;2.10;1.00;;;12.60;99.90;;;;;;5076266;28;20466;-83
2022/04/06 08:55:36;;;;;;;1.10;1.10;;;12.50;99.90;;;;;;5075737;28;20943;-83
2022/04/06 08:58:03;;;;;;;1.37;1.27;;;12.50;99.90;;;;;;5075318;28;20446;-84
2022/04/06 09:00:31;;;;;;;1.17;1.17;;;12.40;99.90;;;;;;5075159;28;20441;-83
2022/04/06 09:02:59;;;;;;;1.33;1.23;;;12.20;99.90;;;;;;5075507;28;20458;-84
2022/04/06 09:05:28;;;;;;;1.40;1.37;;;12.30;99.90;;;;;;5075093;28;20500;-83
2022/04/06 09:07:55;;;;;;;1.20;1.10;;;12.30;99.90;;;;;;5075085;28;20491;-84
2022/04/06 09:10:32;;;;;;;1.20;1.20;;;12.40;99.90;;;;;;5076202;28;20855;-83
2022/04/06 09:13:20;;;;;;;1.20;1.00;;;12.30;99.90;;;;;;5075093;28;20470;-84
2022/04/06 09:15:50;;;;;;;0.83;0.80;;;12.50;99.90;;;;;;5074910;28;20517;-83
2022/04/06 09:18:19;;;;;;;0.70;0.70;;;12.60;99.90;;;;;;5075021;28;20454;-82
2022/04/06 09:20:46;;;;;;;0.50;0.50;;;12.60;99.90;;;;;;5074951;28;20984;-82
2022/04/06 09:23:14;;;;;;;0.70;0.70;;;12.50;99.90;;;;;;5075088;28;20474;-82
2022/04/06 09:25:42;;;;;;;2.27;1.87;;;12.70;99.90;;;;;;5074378;28;20536;-82
2022/04/06 09:28:11;;;;;;;0.73;0.73;;;12.90;99.90;;;;;;5074639;28;20459;-82
2022/04/06 09:30:43;;;;;;;2.90;0.90;;;13.10;99.90;;;;;;5074863;28;20446;-82
2022/04/06 09:33:19;;;;;;;0.87;0.70;;;13.10;99.90;;;;;;5091983;22;20489;-82
2022/04/06 09:35:46;;;;;;;0.60;0.60;;;13.30;99.90;;;;;;5098183;28;20456;-83
2022/04/06 09:38:15;;;;;;;0.70;0.60;;;13.20;99.90;;;;;;5096982;28;20453;-83
2022/04/06 09:40:43;;;;;;;1.00;1.00;;;12.70;99.70;;;;;;5097400;28;20499;-83
2022/04/06 09:43:24;;;;;;;0.50;0.50;;;12.70;99.90;;;;;;5100252;28;20520;-83
2022/04/06 09:48:52;;;;;;;1.90;0.77;;;12.40;99.90;;;;;;5101956;28;20417;-84
2022/04/06 09:51:21;;;;;;;0.87;0.80;;;12.60;99.90;;;;;;5101770;28;20503;-83
2022/04/06 09:53:50;;;;;;;0.87;0.87;;;12.80;99.90;;;;;;5101260;28;20836;-85
2022/04/06 09:56:18;;;;;;;2.03;0.97;;;13.00;99.90;;;;;;5101388;28;20446;-86
2022/04/06 09:58:46;;;;;;;2.93;0.90;;;13.20;99.90;;;;;;5100760;28;20927;-84
2022/04/06 10:01:14;;;;;;;0.70;0.70;;;13.10;99.90;;;;;;5100135;28;20449;-85
2022/04/06 10:03:44;;;;;;;0.70;0.70;;;13.20;99.80;;;;;;5100907;28;20492;-83
2022/04/06 10:06:13;;;;;;;1.10;1.00;;;13.10;99.90;;;;;;5101846;28;20452;-82
2022/04/06 10:08:40;;;;;;;0.80;0.80;;;13.30;99.90;;;;;;5104241;28;20461;-84
2022/04/06 10:11:08;;;;;;;0.77;0.77;;;13.40;99.90;;;;;;5101658;28;20460;-83
2022/04/06 10:13:34;;;;;;;0.90;0.90;;;13.60;99.80;;;;;;5100022;28;20469;-84
2022/04/06 10:16:02;;;;;;;1.37;0.87;;;13.70;99.50;;;;;;5099895;28;20498;-83
2022/04/06 10:18:34;;;;;;;0.80;0.80;;;13.70;99.50;;;;;;5099871;28;20464;-83
2022/04/06 10:21:10;;;;;;;0.63;0.63;;;13.80;99.00;;;;;;5099439;28;20442;-82
2022/04/06 10:23:47;;;;;;;5.00;0.90;;;14.00;98.70;;;;;;5100352;28;20561;-82
2022/04/06 10:26:34;;;;;;;1.03;0.87;;;13.80;98.40;;;;;;5100654;28;20445;-83
2022/04/06 10:29:01;;;;;;;0.70;0.70;;;13.80;98.40;;;;;;5100409;28;20452;-83
2022/04/06 10:31:29;;;;;;;0.70;0.60;;;13.70;98.30;;;;;;5100623;28;20446;-83
2022/04/06 10:34:19;;;;;;;0.87;0.80;;;13.70;98.20;;;;;;5099832;28;20478;-84
2022/04/06 10:37:07;;;;;;;0.50;0.50;;;13.90;98.20;;;;;;5099964;28;20447;-82
2022/04/06 10:39:57;;;;;;;0.70;0.70;;;14.00;98.40;;;;;;5099186;28;20446;-82
2022/04/06 10:42:30;;;;;;;0.60;0.60;;;14.40;96.90;;;;;;5098048;28;20961;-83
2022/04/06 10:44:57;;;;;;;0.70;0.70;;;14.70;97.30;;;;;;5098508;28;20485;-83
2022/04/06 10:47:24;;;;;;;0.70;0.57;;;15.20;97.00;;;;;;5098143;28;20541;-82
2022/04/06 10:50:22;;;;;;;0.73;0.57;;;15.30;95.10;;;;;;5099005;28;20827;-83
2022/04/06 10:52:49;;;;;;;0.60;0.60;;;15.50;94.90;;;;;;5098526;28;20476;-85
2022/04/06 10:55:24;;;;;;;0.97;0.97;;;15.70;94.30;;;;;;5097682;28;20450;-83
2022/04/06 10:58:00;;;;;;;0.87;0.87;;;15.50;94.30;;;;;;5098690;28;20452;-83
2022/04/06 11:00:27;;;;;;;0.97;0.93;;;15.00;95.10;;;;;;5098837;28;20461;-83
2022/04/06 11:02:55;;;;;;;0.60;0.60;;;15.20;95.30;;;;;;5102182;28;20470;-83
2022/04/06 11:05:49;;;;;;;0.70;0.70;;;15.60;94.60;;;;;;5101011;28;20502;-83
2022/04/06 11:11:42;;;;;;;0.80;0.60;;;16.10;94.10;;;;;;5098823;28;20471;-83
2022/04/06 11:14:10;;;;;;;0.50;0.50;;;16.60;92.40;;;;;;5099225;28;20540;-83
2022/04/06 11:16:44;;;;;;;0.50;0.50;;;17.10;92.00;;;;;;5098994;28;20906;-86
2022/04/06 11:19:12;;;;;;;0.80;0.80;;;17.80;91.90;;;;;;5098973;28;20968;-83
2022/04/06 11:21:49;;;;;;;0.60;0.60;;;18.50;91.10;;;;;;5099777;28;20457;-83
2022/04/06 11:24:21;;;;;;;1.23;0.77;;;18.80;87.70;;;;;;5099763;28;20803;-82
2022/04/06 11:26:49;;;;;;;0.70;0.60;;;17.80;88.20;;;;;;5098304;28;20457;-83
2022/04/06 11:29:16;;;;;;;1.17;1.17;;;17.00;90.20;;;;;;5098780;28;20457;-83
2022/04/06 11:31:57;;;;;;;0.70;0.70;;;16.80;90.50;;;;;;5098296;28;20452;-83
2022/04/06 11:34:30;;;;;;;0.73;0.73;;;16.20;91.30;;;;;;5097043;28;20466;-84
2022/04/06 11:36:58;;;;;;;1.00;0.67;;;15.60;91.40;;;;;;5097850;28;20463;-83
2022/04/06 11:39:25;;;;;;;1.30;0.80;;;15.70;91.90;;;;;;5098003;28;20457;-83
2022/04/06 11:41:53;;;;;;;0.70;0.50;;;15.80;91.90;;;;;;5098715;28;20832;-83
2022/04/06 11:44:20;;;;;;;1.07;0.80;;;16.10;91.00;;;;;;5099060;28;20459;-83
2022/04/06 11:46:47;;;;;;;0.50;0.50;;;16.70;91.00;;;;;;5098731;28;20476;-84
2022/04/06 11:49:20;;;;;;;0.97;0.67;;;17.10;88.80;;;;;;5098154;28;20451;-83
2022/04/06 11:51:47;;;;;;;0.60;0.60;;;17.50;87.70;;;;;;5097543;28;20455;-84
2022/04/06 11:54:14;;;;;;;0.70;0.70;;;17.50;87.90;;;;;;5097602;28;20468;-84
2022/04/06 11:56:41;;;;;;;0.80;0.73;;;17.70;86.70;;;;;;5097707;28;20466;-84
2022/04/06 11:59:16;;;;;;;0.50;0.43;;;18.20;87.60;;;;;;5098201;28;20456;-83
2022/04/06 12:01:45;;;;;;;0.53;0.53;;;18.00;84.20;;;;;;5098194;28;20871;-83
2022/04/06 12:04:18;;;;;;;0.73;0.60;;;17.90;83.30;;;;;;5098063;28;20469;-84
2022/04/06 12:06:46;;;;;;;0.40;0.40;;;18.50;84.30;;;;;;5099368;28;20445;-84
2022/04/06 12:09:13;;;;;;;0.50;0.50;;;18.80;82.80;;;;;;5098873;28;20458;-83
2022/04/06 12:11:40;;;;;;;0.50;0.47;;;19.20;80.80;;;;;;5100133;28;20449;-83
2022/04/06 12:14:10;;;;;;;0.67;0.50;;;19.10;79.20;;;;;;5099457;28;20491;-82
2022/04/06 12:16:39;;;;;;;3.37;0.97;;;18.90;81.10;;;;;;5097909;28;20808;-83
2022/04/06 12:19:12;;;;;;;0.67;0.67;;;18.40;79.50;;;;;;5098271;28;20445;-82
2022/04/06 12:21:42;;;;;;;1.00;0.50;;;17.40;80.70;;;;;;5098562;28;20481;-83
2022/04/06 12:24:09;;;;;;;0.90;0.90;;;17.50;82.90;;;;;;5098535;28;20518;-83
2022/04/06 12:26:40;;;;;;;0.57;0.57;;;18.00;84.10;;;;;;5097427;28;20483;-83
2022/04/06 12:29:11;;;;;;;0.80;0.80;;;17.60;82.30;;;;;;5098221;28;20448;-84
2022/04/06 12:31:41;;;;;;;0.60;0.60;;;17.90;81.00;;;;;;5098378;28;20439;-83
2022/04/06 12:34:08;;;;;;;0.60;0.60;;;18.20;79.80;;;;;;5098960;28;20488;-83
2022/04/06 12:36:35;;;;;;;0.40;0.30;;;18.70;80.50;;;;;;5098073;28;21084;-83
2022/04/06 12:39:04;;;;;;;0.60;0.50;;;17.90;78.50;;;;;;5097758;28;20449;-82
2022/04/06 12:41:32;;;;;;;0.60;0.50;;;16.70;82.40;;;;;;5099078;28;20511;-83
2022/04/06 12:44:00;;;;;;;0.60;0.40;;;17.20;84.40;;;;;;5097446;28;20471;-83
2022/04/06 12:46:37;;;;;;;2.47;0.50;;;17.60;83.20;;;;;;5097879;28;20488;-83
2022/04/06 12:49:28;;;;;;;0.43;0.43;;;17.00;82.60;;;;;;5098111;28;20450;-83
2022/04/06 12:52:07;;;;;;;0.60;0.60;;;16.60;84.70;;;;;;5097628;28;21216;-83
2022/04/06 12:54:35;;;;;;;0.43;0.40;;;16.80;84.30;;;;;;5098290;28;20474;-83
2022/04/06 12:57:11;;;;;;;1.63;1.27;;;16.90;84.20;;;;;;5097942;28;20455;-84
2022/04/06 12:59:39;;;;;;;0.50;0.50;;;17.70;83.30;;;;;;5098967;28;20490;-84
2022/04/06 13:02:06;;;;;;;1.13;0.80;;;18.70;82.00;;;;;;5098447;28;20452;-83
2022/04/06 13:04:38;;;;;;;0.70;0.60;;;18.80;79.40;;;;;;5098898;28;20472;-83
2022/04/06 13:07:06;;;;;;;0.70;0.60;;;19.10;78.50;;;;;;5098916;28;20441;-83
2022/04/06 13:09:32;;;;;;;0.60;0.50;;;19.00;75.90;;;;;;5098746;28;20827;-83